Etusivu
METAR-TAF:

METAR-TAF

Lentoasemat :

Lublin, Puola

Leveyspiiri: 51-13-55N, Pituuspiiri: 22-41-25E, korkeus merenpinnasta: 203 m

Tämänhetkinen sää

Tämä raportti tehtiin 36 minuuttia sitten, kello 16.30 UTC
Tuuli 7 kn lounaasta
Lämpötila 0°C
Kosteus 80%
Ilmanpaine 1021 hPa
Näkyvyys 10 km tai enemmän
ei pilviä alle 1500 m:ssä eikä cumulonimbus-pilviä

METAR: EPLB 051630Z 23007KT CAVOK 00/M03 Q1021

Aika: 18:06 (17:06 UTC)

Sääennuste

Tämä raportti tehtiin 2 tuntia ja 36 minuuttia sitten, kello 14.30 UTC
Ennuste voimassa 05. päivästä klo 15 UTC - 05. päivään klo 24 UTC
Tuuli 5 kn etelästä/lounaasta
Näkyvyys 10 km tai enemmän
ei pilviä alle 1500 m:ssä eikä cumulonimbus-pilviä

TAF: EPLB 051430Z 0515/0524 21005KT CAVOK

Säähavainnot ja -ennusteet yli 4000 lentoasemalta (METAR- ja TAF-raportit).

Käytössä olevat sääasemat on merkitty karttaan keltaisilla ja punaisilla pisteillä.

Aseta hiiri pisteen päälle nähdäksesi sääaseman nimen.

Klikkaa sitten nähdäksesi säähavainnot ja -ennusteet.

Kartan vaihtaminen: klikkaa mustalla rastilla varustettuja vihreitä pisteitä, niin voit zoomata sisään; viivalla varustettua vihreää pistettä, niin voit zoomata ulos tai vihreitä nuolia, niin pääset viereisille kartoille.


METAR-TAF: